Time;durP1;ratioP1;P1;durP2;ratioP2;P2;SDS_P1;SDS_P2;PMS_P1;PMS_P2;Temp;Humidity;BMP_temperature;BMP_pressure;BME280_temperature;BME280_humidity;BME280_pressure;Samples;Min_cycle;Max_cycle;Signal;HPM_P1;HPM_P2
2023/05/18 00:02:07;;;;;;;12.35;2.88;;;10.20;1.00;;;;;;5057767;28;20086;-66
2023/05/18 00:04:34;;;;;;;9.45;2.28;;;10.10;1.00;;;;;;5057793;28;20052;-66
2023/05/18 00:07:05;;;;;;;11.00;2.60;;;10.20;1.00;;;;;;5057843;28;20040;-65
2023/05/18 00:09:33;;;;;;;8.50;2.70;;;10.20;1.00;;;;;;5057212;28;20045;-65
2023/05/18 00:12:00;;;;;;;11.82;2.53;;;10.10;1.00;;;;;;5057125;28;20079;-65
2023/05/18 00:14:27;;;;;;;8.23;2.72;;;10.10;1.00;;;;;;5057126;28;20119;-65
2023/05/18 00:16:53;;;;;;;5.55;2.28;;;10.00;1.00;;;;;;5057762;28;20033;-65
2023/05/18 00:19:22;;;;;;;7.70;2.67;;;10.00;1.00;;;;;;5057772;28;20036;-66
2023/05/18 00:21:50;;;;;;;10.75;3.08;;;10.00;1.00;;;;;;5040320;28;20029;-65
2023/05/18 00:24:16;;;;;;;8.68;2.63;;;10.00;1.00;;;;;;5056753;28;20036;-65
2023/05/18 00:26:44;;;;;;;10.77;2.53;;;9.90;1.00;;;;;;5057528;28;20033;-65
2023/05/18 00:29:11;;;;;;;15.63;3.28;;;9.70;1.00;;;;;;5056865;28;20037;-65
2023/05/18 00:31:41;;;;;;;7.97;2.58;;;9.60;1.00;;;;;;5056699;28;20024;-65
2023/05/18 00:34:07;;;;;;;7.47;2.55;;;9.70;1.00;;;;;;5056522;28;20078;-66
2023/05/18 00:36:35;;;;;;;11.85;3.05;;;9.60;1.00;;;;;;5056834;28;20198;-66
2023/05/18 00:39:02;;;;;;;7.88;2.53;;;9.70;1.00;;;;;;5040028;28;20029;-66
2023/05/18 00:41:28;;;;;;;8.07;2.58;;;9.60;1.00;;;;;;5057270;28;20024;-66
2023/05/18 00:43:55;;;;;;;9.30;2.45;;;9.50;1.00;;;;;;5056462;28;20048;-65
2023/05/18 00:46:22;;;;;;;5.22;2.85;;;9.40;1.00;;;;;;5057401;28;20266;-66
2023/05/18 00:48:50;;;;;;;7.57;2.50;;;9.40;1.00;;;;;;5057151;28;20471;-66
2023/05/18 00:51:22;;;;;;;8.15;2.65;;;9.30;1.00;;;;;;5056387;28;20021;-65
2023/05/18 00:53:50;;;;;;;9.10;2.80;;;9.30;1.00;;;;;;5056272;28;20025;-65
2023/05/18 00:56:16;;;;;;;9.27;2.75;;;9.20;1.00;;;;;;5056965;28;20052;-65
2023/05/18 00:58:43;;;;;;;12.50;2.85;;;9.30;1.00;;;;;;5056212;28;20461;-65
2023/05/18 01:01:09;;;;;;;7.15;2.50;;;9.30;1.00;;;;;;5056812;28;20032;-66
2023/05/18 01:03:38;;;;;;;10.90;3.22;;;9.30;1.00;;;;;;5056864;28;20035;-67
2023/05/18 01:06:05;;;;;;;7.25;2.47;;;9.40;1.00;;;;;;5039948;28;20430;-66
2023/05/18 01:08:33;;;;;;;8.68;2.90;;;9.40;1.00;;;;;;5056062;28;20100;-66
2023/05/18 01:11:30;;;;;;;9.98;2.83;;;9.40;1.00;;;;;;5056850;28;20098;-66
2023/05/18 01:14:14;;;;;;;6.38;2.53;;;9.30;1.00;;;;;;5048130;28;20083;-66
2023/05/18 01:16:50;;;;;;;14.43;3.05;;;9.20;1.00;;;;;;5057249;28;20033;-66
2023/05/18 01:19:48;;;;;;;8.10;2.88;;;9.20;1.00;;;;;;5056781;28;20044;-66
2023/05/18 01:22:37;;;;;;;5.85;2.75;;;9.10;1.00;;;;;;5056732;28;20103;-66
2023/05/18 01:25:28;;;;;;;7.78;2.92;;;9.10;1.00;;;;;;5055925;28;20032;-67
2023/05/18 01:27:56;;;;;;;9.48;2.75;;;9.20;1.00;;;;;;5039344;28;20122;-66
2023/05/18 01:30:22;;;;;;;6.63;2.63;;;9.20;1.00;;;;;;5057209;28;20021;-66
2023/05/18 01:32:48;;;;;;;5.85;2.78;;;9.20;1.00;;;;;;5056480;28;20395;-66
2023/05/18 01:35:14;;;;;;;10.13;3.20;;;9.10;1.00;;;;;;5057145;28;20033;-66
2023/05/18 01:37:40;;;;;;;6.70;2.97;;;9.20;1.00;;;;;;5056574;28;20033;-66
2023/05/18 01:40:08;;;;;;;8.05;2.72;;;9.10;1.00;;;;;;5056542;28;20037;-66
2023/05/18 01:42:42;;;;;;;8.00;2.60;;;9.00;1.00;;;;;;5055993;28;20102;-67
2023/05/18 01:45:19;;;;;;;6.40;2.58;;;8.90;1.00;;;;;;5055763;28;20069;-66
2023/05/18 01:47:47;;;;;;;10.60;3.00;;;9.00;1.00;;;;;;5056426;28;20116;-67
2023/05/18 01:50:18;;;;;;;11.13;2.47;;;9.00;1.00;;;;;;5056430;28;20047;-66
2023/05/18 01:52:51;;;;;;;8.50;2.63;;;9.00;1.00;;;;;;5055580;28;20108;-67
2023/05/18 01:55:19;;;;;;;8.82;2.72;;;9.00;1.00;;;;;;5055659;28;20063;-66
2023/05/18 01:57:48;;;;;;;9.15;3.30;;;9.00;1.00;;;;;;5056698;28;20392;-66
2023/05/18 02:00:16;;;;;;;6.93;2.95;;;8.90;1.00;;;;;;5039244;28;20320;-66
2023/05/18 02:02:42;;;;;;;6.03;2.83;;;8.90;1.00;;;;;;5056656;28;20123;-66
2023/05/18 02:05:11;;;;;;;7.63;2.70;;;8.90;1.00;;;;;;5055400;28;20092;-66
2023/05/18 02:07:38;;;;;;;7.68;2.72;;;8.80;1.00;;;;;;5039272;28;20124;-66
2023/05/18 02:10:08;;;;;;;4.70;2.65;;;8.70;1.00;;;;;;5055517;28;20029;-66
2023/05/18 02:12:34;;;;;;;12.30;3.13;;;8.70;1.00;;;;;;5056226;28;20059;-66
2023/05/18 02:15:04;;;;;;;6.65;2.67;;;8.70;1.00;;;;;;5038974;28;20389;-66
2023/05/18 02:17:37;;;;;;;11.55;3.67;;;8.80;1.00;;;;;;5056448;28;20033;-66
2023/05/18 02:20:07;;;;;;;7.60;2.40;;;8.80;1.00;;;;;;5055667;28;20051;-65
2023/05/18 02:22:33;;;;;;;5.65;2.60;;;8.60;1.00;;;;;;5056087;28;20033;-65
2023/05/18 02:24:59;;;;;;;5.60;2.85;;;8.70;1.00;;;;;;5056204;28;20132;-65
2023/05/18 02:27:25;;;;;;;8.48;2.78;;;8.80;1.00;;;;;;5042430;28;20033;-65
2023/05/18 02:29:52;;;;;;;10.95;3.30;;;8.70;1.00;;;;;;5058957;28;20040;-66
2023/05/18 02:32:18;;;;;;;7.78;2.85;;;8.80;1.00;;;;;;5059726;28;20037;-66
2023/05/18 02:34:45;;;;;;;7.45;3.20;;;8.80;1.00;;;;;;5058839;28;20320;-66
2023/05/18 02:37:12;;;;;;;10.75;2.80;;;8.60;1.00;;;;;;5059564;28;20043;-66
2023/05/18 02:39:39;;;;;;;7.10;2.70;;;8.80;1.00;;;;;;5058904;28;20090;-66
2023/05/18 02:42:05;;;;;;;6.50;2.45;;;8.80;1.00;;;;;;5058683;28;20036;-66
2023/05/18 02:44:31;;;;;;;8.60;2.92;;;8.70;1.00;;;;;;5025820;28;20052;-65
2023/05/18 02:46:57;;;;;;;11.57;3.13;;;8.80;1.00;;;;;;5058526;28;20064;-66
2023/05/18 02:49:23;;;;;;;8.32;3.30;;;8.80;1.00;;;;;;5042043;28;20039;-65
2023/05/18 02:51:48;;;;;;;5.38;2.80;;;8.80;1.00;;;;;;5058531;28;20090;-66
2023/05/18 02:54:14;;;;;;;9.77;2.80;;;8.80;1.00;;;;;;5059401;28;20069;-66
2023/05/18 02:56:41;;;;;;;9.02;2.90;;;8.60;1.00;;;;;;5042057;28;20044;-67
2023/05/18 02:59:28;;;;;;;9.60;2.80;;;8.60;1.00;;;;;;5058644;28;20405;-65
2023/05/18 03:01:53;;;;;;;8.90;3.15;;;8.60;1.00;;;;;;5058438;28;20063;-66
2023/05/18 03:04:20;;;;;;;8.15;2.60;;;8.50;1.00;;;;;;5058184;28;20052;-66
2023/05/18 03:06:51;;;;;;;8.75;2.97;;;8.50;1.00;;;;;;5059098;28;20033;-66
2023/05/18 03:09:18;;;;;;;9.13;3.17;;;8.50;1.00;;;;;;5058249;28;20121;-65
2023/05/18 03:11:45;;;;;;;7.90;3.08;;;8.50;1.00;;;;;;5058170;28;20036;-66
2023/05/18 03:14:11;;;;;;;6.10;2.58;;;8.50;1.00;;;;;;5058960;28;20044;-66
2023/05/18 03:16:37;;;;;;;9.20;3.20;;;8.50;1.00;;;;;;5058045;28;20028;-65
2023/05/18 03:19:06;;;;;;;8.35;2.90;;;8.50;1.00;;;;;;5057999;28;20134;-66
2023/05/18 03:21:36;;;;;;;7.18;2.83;;;8.40;1.00;;;;;;5058604;28;20037;-66
2023/05/18 03:24:02;;;;;;;7.03;3.03;;;8.40;1.00;;;;;;5058029;28;20040;-65
2023/05/18 03:26:32;;;;;;;9.48;2.88;;;8.40;1.00;;;;;;5057859;28;20056;-66
2023/05/18 03:28:58;;;;;;;8.80;2.97;;;8.30;1.00;;;;;;5057942;28;20025;-65
2023/05/18 03:31:24;;;;;;;5.80;2.70;;;8.20;1.00;;;;;;5058550;28;20111;-66
2023/05/18 03:33:52;;;;;;;5.97;2.88;;;8.20;1.00;;;;;;5058036;28;20025;-68
2023/05/18 03:36:21;;;;;;;8.80;3.10;;;8.20;1.00;;;;;;5058284;28;20132;-66
2023/05/18 03:38:47;;;;;;;5.70;2.83;;;8.20;1.00;;;;;;5057643;28;20111;-65
2023/05/18 03:41:14;;;;;;;10.75;3.38;;;8.20;1.00;;;;;;5041229;28;20047;-65
2023/05/18 03:43:40;;;;;;;5.82;3.00;;;8.20;1.00;;;;;;5057559;28;20041;-65
2023/05/18 03:46:06;;;;;;;5.50;3.00;;;8.20;1.00;;;;;;5058341;28;20033;-65
2023/05/18 03:48:32;;;;;;;11.82;3.63;;;8.20;1.00;;;;;;5057514;28;20116;-65
2023/05/18 03:50:58;;;;;;;6.65;3.20;;;8.30;1.00;;;;;;5074034;28;20071;-65
2023/05/18 03:53:28;;;;;;;7.32;3.05;;;8.30;1.00;;;;;;5057252;28;20025;-65
2023/05/18 03:55:55;;;;;;;7.53;3.28;;;8.30;1.00;;;;;;5057461;28;20068;-65
2023/05/18 03:58:22;;;;;;;9.77;2.85;;;8.30;1.00;;;;;;5057640;28;20032;-65
2023/05/18 04:00:48;;;;;;;8.20;3.50;;;8.30;1.00;;;;;;5057482;28;20025;-65
2023/05/18 04:03:14;;;;;;;7.53;3.22;;;8.30;1.00;;;;;;5057165;28;20032;-65
2023/05/18 04:05:44;;;;;;;9.57;3.60;;;8.30;1.00;;;;;;5056914;28;20053;-65
2023/05/18 04:08:13;;;;;;;8.90;3.28;;;8.20;1.00;;;;;;5057863;28;20021;-67
2023/05/18 04:10:43;;;;;;;7.25;3.40;;;8.20;1.00;;;;;;5057832;28;20029;-66
2023/05/18 04:13:09;;;;;;;7.15;2.92;;;8.20;1.00;;;;;;5056981;28;20029;-66
2023/05/18 04:15:35;;;;;;;8.40;3.35;;;8.30;1.00;;;;;;5056840;28;20013;-66
2023/05/18 04:18:01;;;;;;;8.38;3.28;;;8.30;1.00;;;;;;5057784;28;20032;-65
2023/05/18 04:20:28;;;;;;;9.55;3.60;;;8.30;1.00;;;;;;5040853;28;20029;-65
2023/05/18 04:22:56;;;;;;;7.38;3.17;;;8.30;1.00;;;;;;5040220;28;20040;-65
2023/05/18 04:25:31;;;;;;;8.95;3.20;;;8.30;1.00;;;;;;5057127;28;20409;-66
2023/05/18 04:27:57;;;;;;;5.63;2.90;;;8.30;1.00;;;;;;5057013;28;20126;-65
2023/05/18 04:30:26;;;;;;;8.93;3.17;;;8.20;1.00;;;;;;5040292;28;20029;-66
2023/05/18 04:32:53;;;;;;;9.13;3.45;;;8.20;1.00;;;;;;5057702;28;20021;-65
2023/05/18 04:35:19;;;;;;;6.18;2.90;;;8.20;1.00;;;;;;5056726;28;20028;-65
2023/05/18 04:37:45;;;;;;;12.07;3.30;;;8.30;1.00;;;;;;5056593;28;20025;-65
2023/05/18 04:40:16;;;;;;;6.20;3.00;;;8.20;1.00;;;;;;5056562;28;20032;-64
2023/05/18 04:42:49;;;;;;;10.68;2.97;;;8.30;1.00;;;;;;5056464;28;20045;-65
2023/05/18 04:45:26;;;;;;;10.20;3.38;;;8.30;1.00;;;;;;5056529;28;20061;-66
2023/05/18 04:47:54;;;;;;;9.00;2.80;;;8.40;1.00;;;;;;5055823;28;20033;-65
2023/05/18 04:50:24;;;;;;;9.57;3.05;;;8.40;1.00;;;;;;5056982;28;20278;-65
2023/05/18 04:52:51;;;;;;;7.63;3.40;;;8.30;1.00;;;;;;5056348;28;20029;-66
2023/05/18 04:55:27;;;;;;;6.75;3.22;;;8.40;1.00;;;;;;5056292;28;20060;-65
2023/05/18 04:58:01;;;;;;;9.15;3.65;;;8.40;1.00;;;;;;5056335;28;20036;-66
2023/05/18 05:00:28;;;;;;;7.03;3.30;;;8.30;1.00;;;;;;5056214;28;20033;-65
2023/05/18 05:02:55;;;;;;;5.82;3.40;;;8.50;1.00;;;;;;5057140;28;20106;-65
2023/05/18 05:05:25;;;;;;;7.90;2.88;;;8.50;1.00;;;;;;5056972;28;20152;-65
2023/05/18 05:07:52;;;;;;;9.52;3.10;;;8.50;1.00;;;;;;5056196;28;20021;-66
2023/05/18 05:10:19;;;;;;;7.03;3.10;;;8.60;1.00;;;;;;5056112;28;20060;-65
2023/05/18 05:12:45;;;;;;;7.47;3.25;;;8.50;1.00;;;;;;5056876;28;20321;-65
2023/05/18 05:15:11;;;;;;;10.40;3.20;;;8.60;1.00;;;;;;5056084;28;20116;-65
2023/05/18 05:17:37;;;;;;;7.38;2.97;;;8.40;1.00;;;;;;5056063;28;20052;-66
2023/05/18 05:20:07;;;;;;;10.60;3.33;;;8.50;1.00;;;;;;5056831;28;20112;-66
2023/05/18 05:22:36;;;;;;;11.55;3.38;;;8.50;1.00;;;;;;5055855;28;20029;-65
2023/05/18 05:25:04;;;;;;;7.00;3.30;;;8.60;1.00;;;;;;5056079;28;20025;-65
2023/05/18 05:27:30;;;;;;;6.43;3.20;;;8.50;1.00;;;;;;5072359;28;20399;-66
2023/05/18 05:29:55;;;;;;;9.52;3.10;;;8.40;1.00;;;;;;5039277;28;20029;-64
2023/05/18 05:32:21;;;;;;;10.65;3.88;;;8.50;1.00;;;;;;5055746;28;20029;-65
2023/05/18 05:34:50;;;;;;;7.90;3.20;;;8.60;1.00;;;;;;5056496;28;20029;-65
2023/05/18 05:37:17;;;;;;;8.57;3.33;;;8.60;1.00;;;;;;5055942;28;20029;-66
2023/05/18 05:39:44;;;;;;;6.15;3.30;;;8.60;1.00;;;;;;5055635;28;20037;-65
2023/05/18 05:42:12;;;;;;;7.15;3.17;;;8.60;1.00;;;;;;5039684;28;20033;-66
2023/05/18 05:44:39;;;;;;;10.82;3.95;;;8.70;1.00;;;;;;5055635;28;20025;-65
2023/05/18 05:47:06;;;;;;;10.55;3.60;;;8.60;1.00;;;;;;5055531;28;20033;-66
2023/05/18 05:49:33;;;;;;;16.38;3.88;;;8.60;1.00;;;;;;5055634;28;20094;-65
2023/05/18 05:51:58;;;;;;;13.13;4.25;;;8.50;1.00;;;;;;5039055;28;20122;-68
2023/05/18 05:54:24;;;;;;;8.20;3.53;;;8.50;1.00;;;;;;5039564;28;20029;-66
2023/05/18 05:56:50;;;;;;;8.18;4.03;;;8.50;1.00;;;;;;5055549;28;20068;-65
2023/05/18 05:59:17;;;;;;;11.18;3.83;;;8.50;1.00;;;;;;5022862;28;20044;-66
2023/05/18 06:01:44;;;;;;;12.10;4.05;;;8.60;1.00;;;;;;5059308;28;20119;-66
2023/05/18 06:04:11;;;;;;;8.65;3.70;;;8.70;1.00;;;;;;5059172;28;20408;-68
2023/05/18 06:06:42;;;;;;;8.07;4.00;;;8.70;1.00;;;;;;5043336;28;20110;-66
2023/05/18 06:09:09;;;;;;;9.82;3.63;;;8.80;1.00;;;;;;5060326;28;20104;-66
2023/05/18 06:11:36;;;;;;;11.15;4.32;;;8.70;1.00;;;;;;5059235;28;20112;-65
2023/05/18 06:14:02;;;;;;;10.10;4.63;;;8.70;1.00;;;;;;5059966;28;20262;-65
2023/05/18 06:16:28;;;;;;;8.60;3.60;;;8.70;1.00;;;;;;5059120;28;20048;-65
2023/05/18 06:18:54;;;;;;;7.25;4.35;;;8.70;1.00;;;;;;5059093;28;20044;-66
2023/05/18 06:21:20;;;;;;;9.00;4.15;;;8.90;1.00;;;;;;5042878;28;20337;-67
2023/05/18 06:23:46;;;;;;;10.18;4.57;;;9.00;1.00;;;;;;5059064;28;20075;-66
2023/05/18 06:26:32;;;;;;;10.43;4.60;;;9.30;1.00;;;;;;5059280;28;20044;-65
2023/05/18 06:29:21;;;;;;;9.60;3.90;;;9.50;1.00;;;;;;5051756;28;20033;-66
2023/05/18 06:32:06;;;;;;;9.68;4.65;;;9.40;1.00;;;;;;5060620;28;20044;-66
2023/05/18 06:34:38;;;;;;;9.07;3.83;;;9.10;1.00;;;;;;5059431;28;20033;-66
2023/05/18 06:37:04;;;;;;;11.25;4.80;;;9.20;1.00;;;;;;5058761;28;20051;-66
2023/05/18 06:39:30;;;;;;;7.65;4.05;;;9.30;1.00;;;;;;5058772;28;20278;-66
2023/05/18 06:41:57;;;;;;;10.13;4.65;;;9.40;1.00;;;;;;5059969;28;20025;-66
2023/05/18 06:44:30;;;;;;;8.88;4.50;;;9.50;1.00;;;;;;5058682;28;20401;-66
2023/05/18 06:47:09;;;;;;;10.75;4.70;;;9.50;1.00;;;;;;5058478;28;20384;-66
2023/05/18 06:49:38;;;;;;;8.80;4.30;;;9.70;1.00;;;;;;5042302;28;20305;-66
2023/05/18 06:52:04;;;;;;;6.80;4.22;;;9.70;1.00;;;;;;5058483;28;20051;-66
2023/05/18 06:54:31;;;;;;;8.75;4.22;;;9.70;1.00;;;;;;5058542;28;20029;-66
2023/05/18 06:56:58;;;;;;;11.85;4.80;;;9.70;1.00;;;;;;5041815;28;20055;-66
2023/05/18 06:59:24;;;;;;;8.18;4.20;;;9.80;1.00;;;;;;5042077;28;20037;-66
2023/05/18 07:01:50;;;;;;;13.70;4.78;;;9.80;1.00;;;;;;5059340;28;20036;-66
2023/05/18 07:04:18;;;;;;;7.95;4.22;;;10.00;1.00;;;;;;5058146;28;20468;-66
2023/05/18 07:06:45;;;;;;;12.90;4.93;;;9.80;1.00;;;;;;5059111;28;20121;-64
2023/05/18 07:09:11;;;;;;;11.23;5.03;;;10.00;1.00;;;;;;5058570;28;20083;-66
2023/05/18 07:11:39;;;;;;;8.18;4.78;;;10.10;1.00;;;;;;5057618;28;20328;-66
2023/05/18 07:14:05;;;;;;;8.65;4.90;;;10.20;1.00;;;;;;5058934;28;20056;-67
2023/05/18 07:16:31;;;;;;;9.95;4.70;;;10.40;1.00;;;;;;5058913;28;20060;-66
2023/05/18 07:18:59;;;;;;;13.63;4.85;;;10.60;1.00;;;;;;5058869;28;20356;-66
2023/05/18 07:21:25;;;;;;;10.88;5.18;;;10.70;1.00;;;;;;5058802;28;20040;-69
2023/05/18 07:23:51;;;;;;;10.63;4.68;;;10.90;1.00;;;;;;5058673;28;20025;-66
2023/05/18 07:26:18;;;;;;;12.38;4.53;;;10.90;1.00;;;;;;5059166;28;20308;-64
2023/05/18 07:28:44;;;;;;;12.93;5.10;;;10.90;1.00;;;;;;5058557;28;20300;-65
2023/05/18 07:31:13;;;;;;;9.95;4.95;;;10.90;1.00;;;;;;5057953;28;20380;-64
2023/05/18 07:33:38;;;;;;;8.07;4.10;;;10.90;1.00;;;;;;5057539;28;20105;-66
2023/05/18 07:36:05;;;;;;;11.13;4.35;;;10.80;1.00;;;;;;5057810;28;20049;-64
2023/05/18 07:38:31;;;;;;;6.57;4.50;;;11.00;1.00;;;;;;5058296;28;20029;-65
2023/05/18 07:40:58;;;;;;;11.43;5.10;;;11.20;1.00;;;;;;5057644;28;20033;-65
2023/05/18 07:43:24;;;;;;;9.73;4.63;;;11.10;1.00;;;;;;5058362;28;20028;-64
2023/05/18 07:45:50;;;;;;;7.80;4.70;;;11.40;1.00;;;;;;5058202;28;20036;-66
2023/05/18 07:48:19;;;;;;;8.23;4.50;;;11.50;1.00;;;;;;5074121;28;20033;-65
2023/05/18 07:50:45;;;;;;;10.43;4.38;;;11.70;1.00;;;;;;5058579;28;20031;-64
2023/05/18 07:53:11;;;;;;;10.63;4.65;;;11.80;1.00;;;;;;5058144;28;20109;-65
2023/05/18 07:55:37;;;;;;;14.30;4.50;;;12.00;1.00;;;;;;5058589;28;20037;-64
2023/05/18 07:58:02;;;;;;;8.27;4.28;;;12.00;1.00;;;;;;5057966;28;20107;-64
2023/05/18 08:00:29;;;;;;;8.27;3.97;;;12.20;1.00;;;;;;5058074;28;20032;-66
2023/05/18 08:02:55;;;;;;;8.63;4.07;;;12.30;1.00;;;;;;5058328;28;20036;-65
2023/05/18 08:05:22;;;;;;;7.50;4.15;;;12.50;1.00;;;;;;5057040;28;20152;-66
2023/05/18 08:07:51;;;;;;;8.32;4.32;;;12.20;1.00;;;;;;5057913;28;20033;-66
2023/05/18 08:10:17;;;;;;;9.55;4.60;;;12.00;1.00;;;;;;5057266;28;20025;-65
2023/05/18 08:12:43;;;;;;;9.82;4.10;;;12.20;1.00;;;;;;5057163;28;20029;-65
2023/05/18 08:15:10;;;;;;;10.38;4.35;;;12.60;1.00;;;;;;5057819;28;20021;-66
2023/05/18 08:17:36;;;;;;;10.68;3.90;;;12.70;1.00;;;;;;5057698;28;20098;-64
2023/05/18 08:20:03;;;;;;;8.77;3.80;;;12.90;1.00;;;;;;5057857;28;20392;-68
2023/05/18 08:22:29;;;;;;;11.95;4.28;;;13.20;1.00;;;;;;5057547;28;20033;-65
2023/05/18 08:24:56;;;;;;;9.90;4.10;;;13.30;99.90;;;;;;5057028;28;20032;-64
2023/05/18 08:27:22;;;;;;;7.18;3.60;;;13.50;99.90;;;;;;5057477;28;20041;-70
2023/05/18 08:29:48;;;;;;;9.27;3.30;;;13.60;99.90;;;;;;5057541;28;20033;-63
2023/05/18 08:32:14;;;;;;;12.20;3.55;;;13.80;99.90;;;;;;5057457;28;20396;-65
2023/05/18 08:34:40;;;;;;;7.75;3.45;;;13.80;1.00;;;;;;5057707;28;20037;-66
2023/05/18 08:37:06;;;;;;;8.93;3.85;;;13.70;99.90;;;;;;5056767;28;20044;-66
2023/05/18 08:39:32;;;;;;;7.78;3.85;;;13.80;99.90;;;;;;5057284;28;20037;-69
2023/05/18 08:42:09;;;;;;;8.95;3.42;;;13.80;99.90;;;;;;5056622;28;20053;-65
2023/05/18 08:45:09;;;;;;;8.15;3.58;;;14.00;99.90;;;;;;5057315;28;20082;-66
2023/05/18 08:47:36;;;;;;;9.68;3.50;;;14.00;1.00;;;;;;5056295;28;20037;-68
2023/05/18 08:50:03;;;;;;;8.80;3.45;;;14.20;1.00;;;;;;5057287;28;20231;-67
2023/05/18 08:52:36;;;;;;;6.65;3.28;;;14.00;99.90;;;;;;5056340;28;20462;-65
2023/05/18 08:55:06;;;;;;;10.20;3.40;;;14.10;1.00;;;;;;5057297;28;20029;-64
2023/05/18 08:57:36;;;;;;;13.05;3.10;;;14.60;99.90;;;;;;5057121;28;20033;-65
2023/05/18 09:00:03;;;;;;;8.70;3.10;;;14.80;1.00;;;;;;5056950;28;20041;-69
2023/05/18 09:02:32;;;;;;;8.57;3.20;;;15.10;99.90;;;;;;5057385;28;20060;-65
2023/05/18 09:04:58;;;;;;;7.90;2.45;;;15.10;1.00;;;;;;5056817;28;20051;-65
2023/05/18 09:07:26;;;;;;;11.20;2.63;;;14.90;99.90;;;;;;5057250;28;20033;-65
2023/05/18 09:09:53;;;;;;;9.40;2.58;;;15.40;99.90;;;;;;5056239;28;20029;-65
2023/05/18 09:12:23;;;;;;;8.40;2.70;;;15.80;1.00;;;;;;5056849;28;20070;-70
2023/05/18 09:14:51;;;;;;;9.02;2.63;;;16.10;99.90;;;;;;5056130;28;20032;-66
2023/05/18 09:17:22;;;;;;;7.50;1.90;;;16.30;1.00;;;;;;5057109;28;20036;-65
2023/05/18 09:19:48;;;;;;;10.48;2.47;;;16.40;1.00;;;;;;5056785;28;20094;-66
2023/05/18 09:22:14;;;;;;;9.40;2.70;;;16.50;1.00;;;;;;5056069;28;20416;-67
2023/05/18 09:24:41;;;;;;;9.88;2.58;;;16.20;98.20;;;;;;5056798;28;20032;-65
2023/05/18 09:27:07;;;;;;;10.38;2.78;;;16.50;90.80;;;;;;5056707;28;20097;-69
2023/05/18 09:29:32;;;;;;;7.13;2.00;;;16.90;1.00;;;;;;5056621;28;20112;-67
2023/05/18 09:32:07;;;;;;;6.68;1.98;;;16.80;1.00;;;;;;5055967;28;20040;-66
2023/05/18 09:34:41;;;;;;;8.30;2.45;;;16.90;99.90;;;;;;5058104;28;20292;-68
2023/05/18 09:37:08;;;;;;;8.85;3.10;;;17.10;99.90;;;;;;5062708;28;20036;-68
2023/05/18 09:39:34;;;;;;;9.48;3.13;;;17.70;99.90;;;;;;5062103;28;20032;-67
2023/05/18 09:42:02;;;;;;;8.65;3.05;;;18.00;1.00;;;;;;5062492;28;20120;-67
2023/05/18 09:44:35;;;;;;;10.38;3.50;;;17.80;1.00;;;;;;5062518;28;20103;-66
2023/05/18 09:47:08;;;;;;;7.28;2.72;;;17.80;1.00;;;;;;5029435;28;20037;-73
2023/05/18 09:49:34;;;;;;;;;;;17.60;1.00;;;;;;5062909;28;20119;-67
2023/05/18 09:52:00;;;;;;;8.63;3.10;;;18.00;1.00;;;;;;5079031;28;19923;-67
2023/05/18 09:54:26;;;;;;;10.38;3.15;;;18.40;99.90;;;;;;5063281;28;20040;-70
2023/05/18 09:56:52;;;;;;;10.13;3.25;;;18.00;99.90;;;;;;5063433;28;20037;-66
2023/05/18 09:59:18;;;;;;;6.68;2.75;;;18.10;99.90;;;;;;5063188;28;20043;-70
2023/05/18 10:02:00;;;;;;;5.72;2.92;;;17.10;99.90;;;;;;5063746;28;20183;-67
2023/05/18 10:04:37;;;;;;;;;;;16.80;1.00;;;;;;5062812;28;20132;-66
2023/05/18 10:07:11;;;;;;;6.15;2.85;;;16.40;1.00;;;;;;5062932;28;19956;-68
2023/05/18 10:09:41;;;;;;;6.25;3.03;;;16.40;1.00;;;;;;5063082;28;20116;-67
2023/05/18 10:12:15;;;;;;;8.35;3.30;;;16.70;1.00;;;;;;5063078;28;20043;-68
2023/05/18 10:14:43;;;;;;;8.10;3.30;;;17.10;1.00;;;;;;5063224;28;20335;-70
2023/05/18 10:17:14;;;;;;;8.40;3.28;;;17.20;1.00;;;;;;5063005;28;20150;-64
2023/05/18 10:19:41;;;;;;;9.23;3.25;;;17.70;1.00;;;;;;5062182;28;20304;-66
2023/05/18 10:22:08;;;;;;;11.95;3.28;;;18.10;99.90;;;;;;5062190;28;20058;-72
2023/05/18 10:24:40;;;;;;;11.85;3.20;;;18.10;99.90;;;;;;5062952;28;20145;-69
2023/05/18 10:27:08;;;;;;;9.77;2.70;;;18.20;99.90;;;;;;5062161;28;20059;-74
2023/05/18 10:29:38;;;;;;;9.15;3.00;;;17.60;99.90;;;;;;5062703;28;20032;-65
2023/05/18 10:32:05;;;;;;;6.97;3.25;;;17.80;99.90;;;;;;5062850;28;20029;-66
2023/05/18 10:34:32;;;;;;;8.43;3.05;;;17.90;99.90;;;;;;5062056;28;20120;-69
2023/05/18 10:37:03;;;;;;;8.20;3.28;;;18.30;99.90;;;;;;5063332;28;20063;-66
2023/05/18 10:39:32;;;;;;;8.77;2.90;;;18.00;99.90;;;;;;5062715;28;20045;-66
2023/05/18 10:41:59;;;;;;;8.25;2.83;;;17.50;99.90;;;;;;5062521;28;20082;-66
2023/05/18 10:44:28;;;;;;;6.32;2.90;;;17.30;99.90;;;;;;5062844;28;20328;-68
2023/05/18 10:46:54;;;;;;;7.65;3.28;;;17.50;99.90;;;;;;5059938;28;20033;-65
2023/05/18 10:49:24;;;;;;;7.93;3.05;;;17.80;99.90;;;;;;5058887;28;20108;-66
2023/05/18 10:51:54;;;;;;;7.93;3.00;;;18.10;99.90;;;;;;5060157;28;20158;-68
2023/05/18 10:54:23;;;;;;;6.78;3.13;;;17.90;99.90;;;;;;5058674;28;20029;-72
2023/05/18 10:56:52;;;;;;;7.75;2.92;;;17.40;37.90;;;;;;5059447;28;20037;-66
2023/05/18 10:59:19;;;;;;;10.70;3.60;;;17.60;1.00;;;;;;5059114;28;20357;-67
2023/05/18 11:01:48;;;;;;;9.07;2.70;;;18.60;1.00;;;;;;5042669;28;20037;-68
2023/05/18 11:04:14;;;;;;;9.15;3.25;;;20.10;1.00;;;;;;5059106;28;20045;-65
2023/05/18 11:06:40;;;;;;;6.03;3.00;;;20.40;1.00;;;;;;5058422;28;20025;-71
2023/05/18 11:09:05;;;;;;;5.97;2.85;;;21.00;1.00;;;;;;5058207;28;20083;-70
2023/05/18 11:11:54;;;;;;;7.93;2.75;;;20.90;1.00;;;;;;5059157;28;20135;-69
2023/05/18 11:14:31;;;;;;;7.95;3.22;;;20.30;1.00;;;;;;5058444;28;20025;-68
2023/05/18 11:17:22;;;;;;;8.57;3.10;;;20.90;1.00;;;;;;5059103;28;20292;-66
2023/05/18 11:20:06;;;;;;;6.93;3.28;;;22.20;1.00;;;;;;5058099;28;20110;-66
2023/05/18 11:23:00;;;;;;;9.10;3.38;;;21.80;99.90;;;;;;5058213;28;20274;-66
2023/05/18 11:25:26;;;;;;;6.68;3.10;;;22.40;99.90;;;;;;5058823;28;20036;-66
2023/05/18 11:28:03;;;;;;;6.93;3.20;;;22.40;99.90;;;;;;5058536;28;20029;-66
2023/05/18 11:30:33;;;;;;;6.97;2.95;;;22.60;99.90;;;;;;5058544;28;20129;-66
2023/05/18 11:33:23;;;;;;;7.70;3.10;;;23.10;99.90;;;;;;5057675;28;20036;-67
2023/05/18 11:36:13;;;;;;;8.68;3.22;;;22.90;99.90;;;;;;5058827;28;20270;-65
2023/05/18 11:38:45;;;;;;;8.20;2.97;;;24.30;99.90;;;;;;5058040;28;20352;-65
2023/05/18 11:41:34;;;;;;;5.72;2.88;;;24.40;99.90;;;;;;5058635;28;20022;-66
2023/05/18 11:44:14;;;;;;;8.65;2.83;;;25.20;99.90;;;;;;5058308;28;20025;-64
2023/05/18 11:47:01;;;;;;;8.77;3.22;;;25.60;99.20;;;;;;5058918;28;20377;-66
2023/05/18 11:49:28;;;;;;;6.80;3.25;;;24.40;53.80;;;;;;5041370;28;20118;-70
2023/05/18 11:52:01;;;;;;;8.50;3.30;;;22.80;68.10;;;;;;5058359;28;20083;-72
2023/05/18 11:54:57;;;;;;;8.77;3.00;;;22.20;99.90;;;;;;5058318;28;20028;-66
2023/05/18 11:57:39;;;;;;;7.10;2.97;;;22.40;88.60;;;;;;5056327;28;20044;-65
2023/05/18 12:00:06;;;;;;;4.88;2.78;;;22.50;93.50;;;;;;5058329;28;20033;-65
2023/05/18 12:02:42;;;;;;;6.38;3.20;;;22.10;91.30;;;;;;5058256;28;20036;-64
2023/05/18 12:05:09;;;;;;;7.82;3.00;;;22.10;83.50;;;;;;5057181;28;20036;-66
2023/05/18 12:07:39;;;;;;;7.53;3.15;;;22.30;53.10;;;;;;5057344;28;20119;-65
2023/05/18 12:10:16;;;;;;;7.50;3.08;;;23.20;67.10;;;;;;5057455;28;20277;-65
2023/05/18 12:12:42;;;;;;;6.53;3.00;;;24.10;39.50;;;;;;5058082;28;20036;-69
2023/05/18 12:15:10;;;;;;;10.15;3.15;;;24.40;15.60;;;;;;5057914;28;20352;-67
2023/05/18 12:17:40;;;;;;;4.80;2.58;;;24.10;12.90;;;;;;5057821;28;20063;-65
2023/05/18 12:20:13;;;;;;;8.70;3.20;;;23.80;28.50;;;;;;5057175;28;20303;-65
2023/05/18 12:22:40;;;;;;;8.32;2.80;;;24.40;8.00;;;;;;5056983;28;20036;-70
2023/05/18 12:25:07;;;;;;;7.53;3.40;;;23.60;12.20;;;;;;5056949;28;20432;-65
2023/05/18 12:27:43;;;;;;;6.03;2.50;;;24.90;5.60;;;;;;5057653;28;20029;-66
2023/05/18 12:30:13;;;;;;;7.35;2.70;;;24.60;9.00;;;;;;5057663;28;20094;-65
2023/05/18 12:32:47;;;;;;;8.50;2.95;;;25.40;6.10;;;;;;5057613;28;20032;-65
2023/05/18 12:35:13;;;;;;;9.05;2.60;;;25.50;1.00;;;;;;5056888;28;20029;-70
2023/05/18 12:37:45;;;;;;;7.93;3.13;;;23.80;1.00;;;;;;5057525;28;20116;-72
2023/05/18 12:40:16;;;;;;;8.80;2.92;;;23.80;1.20;;;;;;5057460;28;20033;-65
2023/05/18 12:42:52;;;;;;;5.53;2.58;;;24.20;1.00;;;;;;5056826;28;20048;-65
2023/05/18 12:45:21;;;;;;;6.80;2.67;;;23.40;1.00;;;;;;5057345;28;20037;-66
2023/05/18 12:47:52;;;;;;;6.53;2.50;;;24.20;1.00;;;;;;5057265;28;20057;-67
2023/05/18 12:50:19;;;;;;;8.02;2.90;;;23.70;1.00;;;;;;5041005;28;20041;-63
2023/05/18 12:52:46;;;;;;;8.82;2.75;;;24.50;1.00;;;;;;5056481;28;20081;-66
2023/05/18 12:55:20;;;;;;;6.55;3.40;;;24.60;1.00;;;;;;5040106;28;20403;-68
2023/05/18 12:57:58;;;;;;;6.75;2.97;;;25.40;1.00;;;;;;5056972;28;20033;-66
2023/05/18 13:00:24;;;;;;;7.47;2.80;;;24.90;1.00;;;;;;5057147;28;20029;-64
2023/05/18 13:02:50;;;;;;;6.85;2.70;;;26.30;1.00;;;;;;5057009;28;20037;-67
2023/05/18 13:05:23;;;;;;;5.90;2.53;;;27.10;1.00;;;;;;5055986;28;20110;-67
2023/05/18 13:07:49;;;;;;;5.00;2.42;;;28.30;1.00;;;;;;5056188;28;20125;-67
2023/05/18 13:10:18;;;;;;;8.00;2.63;;;26.00;1.00;;;;;;5056164;28;20032;-63